Time;durP1;ratioP1;P1;durP2;ratioP2;P2;SDS_P1;SDS_P2;PMS_P1;PMS_P2;Temp;Humidity;BMP_temperature;BMP_pressure;BME280_temperature;BME280_humidity;BME280_pressure;Samples;Min_cycle;Max_cycle;Signal;HPM_P1;HPM_P2
2023/11/28 00:02:21;;;;;;;46.20;24.47;;;;;;;;;;4369265;32;317911;-85
2023/11/28 00:04:49;;;;;;;53.23;26.00;;;;;;;;;;4358956;32;318869;-87
2023/11/28 00:07:16;;;;;;;38.23;22.00;;;;;;;;;;4369010;32;318252;-85
2023/11/28 00:09:45;;;;;;;36.47;20.70;;;;;;;;;;4358997;32;318475;-83
2023/11/28 00:12:12;;;;;;;42.77;20.67;;;;;;;;;;4368974;32;318138;-83
2023/11/28 00:14:40;;;;;;;39.67;19.90;;;;;;;;;;4359154;32;318454;-83
2023/11/28 00:17:07;;;;;;;40.20;20.70;;;;;;;;;;4367359;32;318570;-82
2023/11/28 00:19:34;;;;;;;47.83;23.27;;;;;;;;;;4356019;32;318536;-83
2023/11/28 00:22:00;;;;;;;44.10;23.30;;;;;;;;;;4368619;32;317452;-83
2023/11/28 00:24:27;;;;;;;50.03;25.93;;;;;;;;;;4368681;32;318173;-85
2023/11/28 00:26:54;;;;;;;56.63;27.83;;;;;;;;;;4359052;32;318188;-85
2023/11/28 00:29:22;;;;;;;48.03;27.13;;;;;;;;;;4367184;32;318144;-81
2023/11/28 00:31:50;;;;;;;54.67;27.33;;;;;;;;;;4356958;32;318082;-83
2023/11/28 00:34:17;;;;;;;52.07;25.73;;;;;;;;;;4355486;32;318290;-82
2023/11/28 00:36:45;;;;;;;46.40;25.27;;;;;;;;;;4367994;32;318718;-84
2023/11/28 00:39:13;;;;;;;53.63;27.83;;;;;;;;;;4357939;32;317720;-83
2023/11/28 00:41:40;;;;;;;49.57;26.67;;;;;;;;;;4367811;32;317828;-82
2023/11/28 00:44:07;;;;;;;68.27;31.60;;;;;;;;;;4358304;32;319101;-84
2023/11/28 00:46:34;;;;;;;70.50;35.67;;;;;;;;;;4367015;32;318622;-84
2023/11/28 00:49:03;;;;;;;73.13;37.03;;;;;;;;;;4358357;32;318805;-85
2023/11/28 00:51:30;;;;;;;61.17;33.53;;;;;;;;;;4367791;32;318737;-86
2023/11/28 00:53:57;;;;;;;69.73;34.20;;;;;;;;;;4368605;32;318489;-83
2023/11/28 00:56:24;;;;;;;67.73;34.77;;;;;;;;;;4357313;32;318538;-82
2023/11/28 00:58:51;;;;;;;78.17;38.20;;;;;;;;;;4368395;32;318669;-83
2023/11/28 01:01:19;;;;;;;64.57;36.03;;;;;;;;;;4357352;32;318505;-84
2023/11/28 01:03:46;;;;;;;80.57;42.47;;;;;;;;;;4367759;32;321576;-87
2023/11/28 01:06:14;;;;;;;92.10;48.20;;;;;;;;;;4342709;32;318217;-84
2023/11/28 01:08:42;;;;;;;81.40;43.77;;;;;;;;;;4367232;32;318817;-84
2023/11/28 01:11:09;;;;;;;73.90;43.03;;;;;;;;;;4357367;32;319042;-83
2023/11/28 01:13:36;;;;;;;75.07;38.67;;;;;;;;;;4364885;32;319193;-85
2023/11/28 01:16:03;;;;;;;67.90;36.37;;;;;;;;;;4355652;32;325452;-85
2023/11/28 01:18:30;;;;;;;66.27;35.83;;;;;;;;;;4367432;32;319070;-83
2023/11/28 01:20:58;;;;;;;76.40;38.37;;;;;;;;;;4366628;32;318376;-83
2023/11/28 01:23:26;;;;;;;76.63;36.90;;;;;;;;;;4353300;32;417386;-83
2023/11/28 01:25:53;;;;;;;61.77;31.63;;;;;;;;;;4367979;32;318398;-83
2023/11/28 01:28:20;;;;;;;56.13;30.47;;;;;;;;;;4356644;32;319344;-83
2023/11/28 01:30:47;;;;;;;47.60;22.67;;;;;;;;;;4366563;32;319069;-83
2023/11/28 01:33:14;;;;;;;36.63;19.83;;;;;;;;;;4354793;32;355449;-86
2023/11/28 01:35:41;;;;;;;33.70;19.57;;;;;;;;;;4352299;32;351122;-83
2023/11/28 01:38:07;;;;;;;34.27;16.53;;;;;;;;;;4357499;32;318724;-83
2023/11/28 01:40:36;;;;;;;22.37;12.50;;;;;;;;;;4368727;32;318476;-83
2023/11/28 01:43:04;;;;;;;21.97;13.33;;;;;;;;;;4359813;32;318359;-85
2023/11/28 01:45:31;;;;;;;24.00;14.70;;;;;;;;;;4370640;32;318765;-86
2023/11/28 01:47:58;;;;;;;26.47;14.73;;;;;;;;;;4356400;32;318256;-83
2023/11/28 01:50:25;;;;;;;25.67;14.03;;;;;;;;;;4356893;32;418839;-83
2023/11/28 01:52:52;;;;;;;17.77;10.17;;;;;;;;;;4370593;32;318598;-83
2023/11/28 01:55:19;;;;;;;25.30;12.37;;;;;;;;;;4359737;32;318332;-83
2023/11/28 01:57:48;;;;;;;20.90;11.27;;;;;;;;;;4370169;32;318125;-86
2023/11/28 02:00:16;;;;;;;23.47;13.07;;;;;;;;;;4360739;32;318223;-85
2023/11/28 02:02:44;;;;;;;25.33;12.80;;;;;;;;;;4370876;32;318955;-83
2023/11/28 02:05:11;;;;;;;22.73;13.50;;;;;;;;;;4359701;32;318319;-84
2023/11/28 02:07:40;;;;;;;26.93;13.47;;;;;;;;;;4370768;32;318240;-83
2023/11/28 02:10:08;;;;;;;27.57;13.90;;;;;;;;;;4360928;32;318186;-84
2023/11/28 02:12:35;;;;;;;28.23;16.37;;;;;;;;;;4369118;32;333543;-83
2023/11/28 02:15:04;;;;;;;23.40;13.70;;;;;;;;;;4358160;32;337379;-84
2023/11/28 02:17:31;;;;;;;18.77;11.43;;;;;;;;;;4370127;32;318695;-85
2023/11/28 02:19:58;;;;;;;23.47;14.20;;;;;;;;;;4370609;32;318056;-84
2023/11/28 02:22:25;;;;;;;28.47;13.60;;;;;;;;;;4359867;32;318176;-84
2023/11/28 02:24:54;;;;;;;20.83;11.87;;;;;;;;;;4369411;32;318186;-84
2023/11/28 02:27:22;;;;;;;20.63;11.83;;;;;;;;;;4359345;32;318513;-83
2023/11/28 02:29:49;;;;;;;17.47;9.73;;;;;;;;;;4370379;32;318344;-84
2023/11/28 02:32:16;;;;;;;16.73;9.30;;;;;;;;;;4358662;32;317189;-86
2023/11/28 02:34:43;;;;;;;16.80;10.37;;;;;;;;;;4370043;32;316558;-83
2023/11/28 02:37:10;;;;;;;17.13;9.03;;;;;;;;;;4358859;32;318671;-83
2023/11/28 02:39:37;;;;;;;14.33;8.43;;;;;;;;;;4369007;32;317090;-85
2023/11/28 02:42:04;;;;;;;17.67;9.70;;;;;;;;;;4359216;32;317684;-83
2023/11/28 02:44:32;;;;;;;16.63;9.90;;;;;;;;;;4368962;32;316924;-86
2023/11/28 02:46:59;;;;;;;14.70;8.17;;;;;;;;;;4368971;32;317260;-83
2023/11/28 02:49:26;;;;;;;14.40;7.27;;;;;;;;;;4356086;32;418481;-84
2023/11/28 02:51:53;;;;;;;11.90;6.30;;;;;;;;;;4368047;32;317687;-84
2023/11/28 02:54:21;;;;;;;6.73;3.37;;;;;;;;;;4352544;32;331648;-83
2023/11/28 02:56:48;;;;;;;5.70;2.60;;;;;;;;;;4371007;32;331365;-83
2023/11/28 02:59:15;;;;;;;10.77;5.20;;;;;;;;;;4364191;32;316157;-84
2023/11/28 03:01:43;;;;;;;12.43;3.80;;;;;;;;;;4381862;32;317607;-85
2023/11/28 03:04:10;;;;;;;6.90;4.40;;;;;;;;;;4367920;32;317687;-84
2023/11/28 03:06:37;;;;;;;5.00;3.20;;;;;;;;;;4369555;32;316624;-84
2023/11/28 03:09:04;;;;;;;10.77;5.50;;;;;;;;;;4358615;32;316450;-85
2023/11/28 03:11:31;;;;;;;7.53;4.40;;;;;;;;;;4368428;32;316896;-86
2023/11/28 03:13:58;;;;;;;4.87;3.80;;;;;;;;;;4368626;32;316432;-83
2023/11/28 03:16:25;;;;;;;4.90;3.67;;;;;;;;;;4358295;32;356019;-84
2023/11/28 03:18:53;;;;;;;10.47;5.53;;;;;;;;;;4370448;32;315801;-84
2023/11/28 03:21:20;;;;;;;9.00;4.27;;;;;;;;;;4358287;32;317190;-84
2023/11/28 03:23:47;;;;;;;9.70;5.80;;;;;;;;;;4368226;32;347192;-85
2023/11/28 03:26:14;;;;;;;11.67;5.77;;;;;;;;;;4359151;32;315769;-86
2023/11/28 03:28:40;;;;;;;7.00;4.70;;;;;;;;;;4369648;32;316528;-83
2023/11/28 03:31:08;;;;;;;7.37;4.67;;;;;;;;;;4359334;32;316872;-84
2023/11/28 03:33:35;;;;;;;6.77;4.20;;;;;;;;;;4368601;32;316015;-85
2023/11/28 03:36:04;;;;;;;4.90;3.77;;;;;;;;;;4358776;32;317017;-84
2023/11/28 03:38:32;;;;;;;7.07;3.10;;;;;;;;;;4369083;32;316847;-86
2023/11/28 03:40:59;;;;;;;5.73;3.67;;;;;;;;;;4368192;32;316310;-83
2023/11/28 03:43:26;;;;;;;7.00;3.93;;;;;;;;;;4354951;32;417549;-83
2023/11/28 03:45:53;;;;;;;6.50;4.30;;;;;;;;;;4366813;32;340596;-83
2023/11/28 03:48:20;;;;;;;6.20;4.47;;;;;;;;;;4359286;32;316350;-85
2023/11/28 03:50:47;;;;;;;6.67;3.97;;;;;;;;;;4368086;32;315718;-87
2023/11/28 03:53:15;;;;;;;5.03;3.57;;;;;;;;;;4359454;32;316468;-84
2023/11/28 03:55:42;;;;;;;5.70;4.60;;;;;;;;;;4368600;32;316700;-86
2023/11/28 03:58:09;;;;;;;4.33;3.33;;;;;;;;;;4357789;32;338675;-86
2023/11/28 04:00:36;;;;;;;8.83;4.53;;;;;;;;;;4368505;32;334083;-84
2023/11/28 04:03:05;;;;;;;7.23;4.27;;;;;;;;;;4359199;32;316509;-85
2023/11/28 04:05:32;;;;;;;5.83;3.97;;;;;;;;;;4368172;32;316464;-86
2023/11/28 04:07:59;;;;;;;7.00;4.53;;;;;;;;;;4368131;32;316610;-84
2023/11/28 04:10:29;;;;;;;5.93;4.03;;;;;;;;;;4356083;32;417079;-84
2023/11/28 04:12:56;;;;;;;5.07;3.50;;;;;;;;;;4369676;32;316784;-84
2023/11/28 04:15:22;;;;;;;5.40;3.27;;;;;;;;;;4358492;32;316810;-84
2023/11/28 04:17:50;;;;;;;4.47;2.77;;;;;;;;;;4369378;32;316657;-85
2023/11/28 04:20:17;;;;;;;5.57;2.80;;;;;;;;;;4358680;32;316514;-87
2023/11/28 04:22:44;;;;;;;4.83;3.10;;;;;;;;;;4368795;32;316469;-84
2023/11/28 04:25:11;;;;;;;8.57;3.80;;;;;;;;;;4358759;32;316485;-84
2023/11/28 04:27:39;;;;;;;5.30;3.00;;;;;;;;;;4368269;32;316374;-85
2023/11/28 04:30:08;;;;;;;4.27;3.23;;;;;;;;;;4358607;32;315816;-84
2023/11/28 04:32:35;;;;;;;7.80;3.20;;;;;;;;;;4368522;32;316360;-84
2023/11/28 04:35:02;;;;;;;4.40;2.83;;;;;;;;;;4359089;32;316497;-87
2023/11/28 04:37:28;;;;;;;3.63;2.47;;;;;;;;;;4368693;32;316679;-84
2023/11/28 04:39:56;;;;;;;6.93;2.83;;;;;;;;;;4369651;32;316822;-83
2023/11/28 04:42:23;;;;;;;4.60;2.87;;;;;;;;;;4358996;32;316701;-83
2023/11/28 04:44:51;;;;;;;5.83;3.30;;;;;;;;;;4368760;32;316896;-84
2023/11/28 04:47:18;;;;;;;3.43;3.10;;;;;;;;;;4357029;32;315917;-84
2023/11/28 04:49:45;;;;;;;7.13;3.27;;;;;;;;;;4367659;32;319328;-85
2023/11/28 04:52:12;;;;;;;4.40;2.83;;;;;;;;;;4356876;32;315713;-84
2023/11/28 04:54:39;;;;;;;3.30;2.57;;;;;;;;;;4367886;32;315431;-85
2023/11/28 04:57:06;;;;;;;3.03;1.90;;;;;;;;;;4358158;32;316290;-85
2023/11/28 04:59:33;;;;;;;4.50;2.90;;;;;;;;;;4367467;32;316315;-83
2023/11/28 05:02:03;;;;;;;5.33;2.90;;;;;;;;;;4365238;32;315369;-87
2023/11/28 05:04:30;;;;;;;2.50;2.30;;;;;;;;;;4369340;32;315578;-83
2023/11/28 05:06:57;;;;;;;5.03;2.10;;;;;;;;;;4369137;32;315958;-83
2023/11/28 05:09:27;;;;;;;3.03;2.17;;;;;;;;;;4357152;32;316023;-83
2023/11/28 05:11:54;;;;;;;10.30;3.93;;;;;;;;;;4368747;32;315468;-82
2023/11/28 05:14:21;;;;;;;4.83;2.87;;;;;;;;;;4358620;32;316465;-83
2023/11/28 05:16:48;;;;;;;4.10;3.03;;;;;;;;;;4368526;32;316083;-83
2023/11/28 05:19:16;;;;;;;6.17;3.17;;;;;;;;;;4359886;32;315979;-83
2023/11/28 05:21:42;;;;;;;3.10;2.57;;;;;;;;;;4370645;32;316268;-83
2023/11/28 05:24:10;;;;;;;7.67;4.57;;;;;;;;;;4360959;32;314959;-83
2023/11/28 05:26:37;;;;;;;10.93;4.83;;;;;;;;;;4370170;32;316209;-83
2023/11/28 05:29:04;;;;;;;7.77;4.47;;;;;;;;;;4358826;32;361657;-82
2023/11/28 05:31:31;;;;;;;13.07;4.53;;;;;;;;;;4369700;32;316157;-82
2023/11/28 05:33:57;;;;;;;7.27;4.97;;;;;;;;;;4370444;32;316631;-82
2023/11/28 05:36:26;;;;;;;7.73;5.00;;;;;;;;;;4360741;32;316819;-83
2023/11/28 05:38:53;;;;;;;8.50;5.10;;;;;;;;;;4369252;32;315733;-84
2023/11/28 05:41:20;;;;;;;6.80;4.27;;;;;;;;;;4358840;32;315776;-83
2023/11/28 05:43:46;;;;;;;9.00;4.67;;;;;;;;;;4369686;32;316016;-84
2023/11/28 05:46:13;;;;;;;4.77;3.53;;;;;;;;;;4358269;32;316230;-84
2023/11/28 05:48:40;;;;;;;7.03;3.90;;;;;;;;;;4367714;32;316236;-89
2023/11/28 05:51:10;;;;;;;8.87;4.47;;;;;;;;;;4356404;32;316701;-88
2023/11/28 05:53:38;;;;;;;22.77;6.53;;;;;;;;;;4365164;32;316063;-90
2023/11/28 05:56:09;;;;;;;11.37;6.23;;;;;;;;;;4348624;32;317351;-86
2023/11/28 05:58:35;;;;;;;11.13;6.00;;;;;;;;;;4366655;32;316725;-88
2023/11/28 06:01:02;;;;;;;7.33;4.80;;;;;;;;;;4343784;32;316600;-86
2023/11/28 06:03:29;;;;;;;11.17;5.53;;;;;;;;;;4361956;32;316143;-85
2023/11/28 06:05:56;;;;;;;6.10;4.23;;;;;;;;;;4364343;32;316750;-85
2023/11/28 06:08:23;;;;;;;10.83;5.90;;;;;;;;;;4355806;32;338956;-85
2023/11/28 06:10:52;;;;;;;10.63;5.47;;;;;;;;;;4366643;32;317246;-88
2023/11/28 06:13:19;;;;;;;8.87;5.37;;;;;;;;;;4355165;32;338759;-87
2023/11/28 06:15:46;;;;;;;8.40;5.10;;;;;;;;;;4366702;32;315610;-88
2023/11/28 06:18:13;;;;;;;5.20;3.30;;;;;;;;;;4354775;32;324316;-88
2023/11/28 06:20:40;;;;;;;9.50;5.83;;;;;;;;;;4366478;32;316895;-88
2023/11/28 06:23:07;;;;;;;8.10;4.87;;;;;;;;;;4356409;32;315431;-88
2023/11/28 06:25:35;;;;;;;12.03;7.33;;;;;;;;;;4352166;32;315993;-87
2023/11/28 06:28:04;;;;;;;6.03;4.73;;;;;;;;;;4350230;32;316568;-87
2023/11/28 06:30:31;;;;;;;14.10;6.90;;;;;;;;;;4369867;32;329026;-88
2023/11/28 06:32:58;;;;;;;15.63;9.27;;;;;;;;;;4370939;32;316578;-88
2023/11/28 06:35:26;;;;;;;16.13;8.20;;;;;;;;;;4352732;32;317472;-88
2023/11/28 06:37:53;;;;;;;13.53;8.00;;;;;;;;;;4369960;32;316738;-88
2023/11/28 06:40:21;;;;;;;16.20;7.57;;;;;;;;;;4351178;32;316973;-91
2023/11/28 06:42:48;;;;;;;15.63;8.17;;;;;;;;;;4363369;32;317764;-87
2023/11/28 06:45:16;;;;;;;14.60;8.50;;;;;;;;;;4359568;32;317312;-89
2023/11/28 06:47:43;;;;;;;6.70;4.70;;;;;;;;;;4370461;32;355103;-87
2023/11/28 06:50:11;;;;;;;10.23;4.27;;;;;;;;;;4373206;32;316136;-89
2023/11/28 06:52:38;;;;;;;9.33;5.50;;;;;;;;;;4384990;32;316517;-89
2023/11/28 06:55:06;;;;;;;10.33;5.00;;;;;;;;;;4363934;32;315385;-88
2023/11/28 06:57:33;;;;;;;10.03;4.33;;;;;;;;;;4369930;32;317798;-88
2023/11/28 07:00:00;;;;;;;5.83;2.80;;;;;;;;;;4365250;32;318288;-87
2023/11/28 07:02:29;;;;;;;6.87;4.60;;;;;;;;;;4366406;32;315879;-84
2023/11/28 07:04:56;;;;;;;5.77;2.17;;;;;;;;;;4365172;32;316230;-87
2023/11/28 07:07:23;;;;;;;8.37;3.53;;;;;;;;;;4348924;32;316507;-86
2023/11/28 07:09:50;;;;;;;5.20;2.50;;;;;;;;;;4368356;32;316300;-86
2023/11/28 07:12:17;;;;;;;9.60;3.13;;;;;;;;;;4358652;32;316166;-86
2023/11/28 07:14:44;;;;;;;4.73;2.00;;;;;;;;;;4354591;32;315865;-87
2023/11/28 07:17:11;;;;;;;4.50;2.80;;;;;;;;;;4358676;32;316727;-84
2023/11/28 07:19:39;;;;;;;5.87;2.93;;;;;;;;;;4368522;32;316347;-87
2023/11/28 07:22:06;;;;;;;6.13;3.07;;;;;;;;;;4357570;32;339522;-83
2023/11/28 07:24:33;;;;;;;2.80;2.00;;;;;;;;;;4369632;32;316216;-83
2023/11/28 07:27:00;;;;;;;5.97;2.70;;;;;;;;;;4370737;32;316297;-84
2023/11/28 07:29:27;;;;;;;4.93;2.90;;;;;;;;;;4356473;32;415313;-87
2023/11/28 07:31:54;;;;;;;10.70;3.23;;;;;;;;;;4369298;32;316246;-89
2023/11/28 07:34:21;;;;;;;4.40;3.57;;;;;;;;;;4358650;32;317328;-85
2023/11/28 07:36:51;;;;;;;13.43;6.50;;;;;;;;;;4369012;32;316354;-84
2023/11/28 07:39:18;;;;;;;10.60;5.70;;;;;;;;;;4357468;32;317450;-85
2023/11/28 07:41:45;;;;;;;6.77;3.80;;;;;;;;;;4369106;32;317198;-86
2023/11/28 07:44:13;;;;;;;3.67;2.57;;;;;;;;;;4344877;32;315826;-84
2023/11/28 07:46:39;;;;;;;4.03;2.67;;;;;;;;;;4368309;32;315521;-84
2023/11/28 07:49:06;;;;;;;6.73;3.37;;;;;;;;;;4357831;32;316159;-83
2023/11/28 07:51:33;;;;;;;5.80;2.60;;;;;;;;;;4367166;32;342874;-87
2023/11/28 07:54:01;;;;;;;3.63;2.77;;;;;;;;;;4368920;32;316314;-85
2023/11/28 07:56:28;;;;;;;5.73;3.10;;;;;;;;;;4355288;32;415875;-83
2023/11/28 07:58:55;;;;;;;3.97;3.03;;;;;;;;;;4367381;32;337242;-83
2023/11/28 08:01:22;;;;;;;5.73;4.17;;;;;;;;;;4359077;32;316300;-85
2023/11/28 08:03:50;;;;;;;4.77;3.43;;;;;;;;;;4367665;32;319594;-84
2023/11/28 08:06:18;;;;;;;15.33;8.03;;;;;;;;;;4344876;32;316291;-83
2023/11/28 08:08:45;;;;;;;10.77;6.00;;;;;;;;;;4367688;32;316756;-82
2023/11/28 08:11:14;;;;;;;21.30;11.57;;;;;;;;;;4357293;32;317204;-82
2023/11/28 08:13:41;;;;;;;17.10;8.37;;;;;;;;;;4368090;32;317638;-82
2023/11/28 08:16:10;;;;;;;6.83;3.67;;;;;;;;;;4357934;32;317169;-84
2023/11/28 08:18:37;;;;;;;5.73;4.40;;;;;;;;;;4368862;32;316429;-82
2023/11/28 08:21:06;;;;;;;5.27;3.23;;;;;;;;;;4338476;32;316100;-82
2023/11/28 08:23:33;;;;;;;5.23;3.40;;;;;;;;;;4366335;32;316277;-83
2023/11/28 08:26:00;;;;;;;6.20;3.97;;;;;;;;;;4360102;32;316500;-85
2023/11/28 08:28:31;;;;;;;8.03;4.47;;;;;;;;;;4354387;32;415671;-84
2023/11/28 08:30:58;;;;;;;11.83;3.10;;;;;;;;;;4368599;32;316122;-84
2023/11/28 08:33:25;;;;;;;10.30;3.47;;;;;;;;;;4358740;32;317511;-84
2023/11/28 08:35:52;;;;;;;4.20;3.00;;;;;;;;;;4367229;32;317129;-83
2023/11/28 08:38:18;;;;;;;4.57;3.23;;;;;;;;;;4357138;32;316160;-84
2023/11/28 08:40:46;;;;;;;5.73;3.37;;;;;;;;;;4367758;32;315831;-87
2023/11/28 08:43:13;;;;;;;5.80;3.80;;;;;;;;;;4358612;32;316095;-87
2023/11/28 08:45:44;;;;;;;6.57;2.47;;;;;;;;;;4368683;32;316213;-83
2023/11/28 08:48:11;;;;;;;4.43;2.70;;;;;;;;;;4358186;32;323813;-84
2023/11/28 08:50:38;;;;;;;5.70;3.63;;;;;;;;;;4366619;32;316873;-87
2023/11/28 08:53:07;;;;;;;4.83;2.77;;;;;;;;;;4356215;32;322968;-84
2023/11/28 08:55:34;;;;;;;5.37;3.53;;;;;;;;;;4368536;32;316222;-86
2023/11/28 08:58:01;;;;;;;6.27;4.03;;;;;;;;;;4358606;32;315503;-85
2023/11/28 09:00:29;;;;;;;9.23;3.20;;;;;;;;;;4368285;32;316492;-87
2023/11/28 09:02:58;;;;;;;8.73;3.07;;;;;;;;;;4368364;32;315707;-83
2023/11/28 09:05:25;;;;;;;7.53;4.13;;;;;;;;;;4357238;32;316080;-82
2023/11/28 09:07:52;;;;;;;5.03;3.57;;;;;;;;;;4367741;32;315636;-87
2023/11/28 09:10:20;;;;;;;9.57;5.60;;;;;;;;;;4356029;32;352457;-87
2023/11/28 09:12:48;;;;;;;8.63;5.00;;;;;;;;;;4368000;32;323380;-85
2023/11/28 09:15:15;;;;;;;10.83;5.57;;;;;;;;;;4357212;32;316131;-87
2023/11/28 09:17:43;;;;;;;10.50;5.70;;;;;;;;;;4368223;32;317175;-87
2023/11/28 09:20:12;;;;;;;5.17;3.20;;;;;;;;;;4357976;32;317249;-87
2023/11/28 09:22:40;;;;;;;3.20;2.10;;;;;;;;;;4354441;32;315933;-86
2023/11/28 09:25:09;;;;;;;6.43;3.30;;;;;;;;;;4354709;32;316476;-86
2023/11/28 09:27:36;;;;;;;6.63;3.13;;;;;;;;;;4360381;32;315590;-85
2023/11/28 09:30:03;;;;;;;7.57;4.07;;;;;;;;;;4357928;32;316289;-83
2023/11/28 09:32:30;;;;;;;6.63;4.20;;;;;;;;;;4353325;32;316308;-86
2023/11/28 09:34:57;;;;;;;13.03;5.97;;;;;;;;;;4365515;32;347666;-89
2023/11/28 09:37:26;;;;;;;9.90;5.93;;;;;;;;;;4357594;32;316451;-86
2023/11/28 09:39:53;;;;;;;11.83;7.43;;;;;;;;;;4366941;32;316421;-84
2023/11/28 09:42:23;;;;;;;8.13;5.03;;;;;;;;;;4357417;32;317087;-87
2023/11/28 09:44:52;;;;;;;6.73;3.70;;;;;;;;;;4368066;32;316133;-83
2023/11/28 09:47:24;;;;;;;5.83;2.60;;;;;;;;;;4356469;32;316445;-88
2023/11/28 09:49:55;;;;;;;5.87;4.40;;;;;;;;;;4354582;32;315471;-85
2023/11/28 09:52:23;;;;;;;32.27;19.67;;;;;;;;;;4347665;32;345078;-88
2023/11/28 09:54:54;;;;;;;51.93;30.60;;;;;;;;;;4366046;32;318325;-84
2023/11/28 09:57:22;;;;;;;16.70;11.17;;;;;;;;;;4357520;32;317845;-90
2023/11/28 09:59:51;;;;;;;34.47;19.67;;;;;;;;;;4367799;32;317354;-86
2023/11/28 10:02:17;;;;;;;46.30;33.43;;;;;;;;;;4357694;32;318218;-87
2023/11/28 10:04:45;;;;;;;17.63;12.83;;;;;;;;;;4369648;32;317695;-88
2023/11/28 10:07:14;;;;;;;4.03;3.30;;;;;;;;;;4359488;32;318031;-85
2023/11/28 10:09:47;;;;;;;7.37;4.60;;;;;;;;;;4359029;32;316115;-86
2023/11/28 10:12:16;;;;;;;4.37;3.77;;;;;;;;;;4362349;32;316103;-88
2023/11/28 10:14:45;;;;;;;5.30;2.90;;;;;;;;;;4372471;32;315327;-85
2023/11/28 10:17:12;;;;;;;8.47;3.47;;;;;;;;;;4360555;32;316504;-83
2023/11/28 10:19:39;;;;;;;113.03;44.77;;;;;;;;;;4371836;32;315494;-86
2023/11/28 10:22:08;;;;;;;124.80;52.23;;;;;;;;;;4354524;32;318588;-89
2023/11/28 10:24:35;;;;;;;18.23;10.53;;;;;;;;;;4378306;32;319345;-88
2023/11/28 10:27:04;;;;;;;76.77;44.03;;;;;;;;;;4362552;32;318342;-87
2023/11/28 10:29:35;;;;;;;93.17;42.43;;;;;;;;;;4363977;32;317419;-86
2023/11/28 10:32:05;;;;;;;36.50;20.30;;;;;;;;;;4351667;32;317691;-86
2023/11/28 10:34:35;;;;;;;81.63;39.00;;;;;;;;;;4360895;32;318094;-86
2023/11/28 10:37:02;;;;;;;105.77;47.03;;;;;;;;;;4349746;32;317693;-86
2023/11/28 10:39:29;;;;;;;5.93;4.70;;;;;;;;;;4358863;32;318390;-84
2023/11/28 10:41:57;;;;;;;24.87;13.07;;;;;;;;;;4363862;32;316289;-83
2023/11/28 10:44:25;;;;;;;11.43;7.43;;;;;;;;;;4349078;32;324101;-83
2023/11/28 10:46:59;;;;;;;52.23;31.67;;;;;;;;;;4374934;32;317282;-89
2023/11/28 10:49:25;;;;;;;18.50;9.20;;;;;;;;;;4363335;32;390112;-88
2023/11/28 10:51:56;;;;;;;15.80;10.77;;;;;;;;;;4372544;32;317006;-86
2023/11/28 10:54:26;;;;;;;6.37;4.27;;;;;;;;;;4361270;32;318255;-88
2023/11/28 10:56:58;;;;;;;7.33;5.17;;;;;;;;;;4370065;32;315962;-87
2023/11/28 10:59:31;;;;;;;7.93;5.60;;;;;;;;;;4359890;32;316184;-89
2023/11/28 11:02:01;;;;;;;6.60;3.77;;;;;;;;;;4369683;32;316118;-88
2023/11/28 11:04:28;;;;;;;8.40;5.57;;;;;;;;;;4356266;32;415696;-86
2023/11/28 11:06:56;;;;;;;4.10;3.20;;;;;;;;;;4371127;32;315805;-88
2023/11/28 11:09:24;;;;;;;7.13;3.77;;;;;;;;;;4360474;32;316592;-88
2023/11/28 11:11:52;;;;;;;6.13;4.97;;;;;;;;;;4369761;32;316365;-89
2023/11/28 11:14:33;;;;;;;5.10;3.37;;;;;;;;;;4359612;32;316193;-87
2023/11/28 11:17:14;;;;;;;6.63;3.10;;;;;;;;;;4371395;32;316140;-88
2023/11/28 11:19:44;;;;;;;2.97;2.33;;;;;;;;;;4358296;32;414989;-90
2023/11/28 11:22:13;;;;;;;32.47;14.07;;;;;;;;;;4359311;32;316245;-86
2023/11/28 11:24:40;;;;;;;5.90;4.03;;;;;;;;;;4370200;32;318186;-92
2023/11/28 11:27:08;;;;;;;10.90;5.20;;;;;;;;;;4351684;32;316116;-86
2023/11/28 11:29:40;;;;;;;11.20;5.83;;;;;;;;;;4372254;32;317285;-88
2023/11/28 11:32:13;;;;;;;11.63;6.07;;;;;;;;;;4344939;32;317032;-87
2023/11/28 11:34:42;;;;;;;9.50;5.37;;;;;;;;;;4356031;32;317413;-88
2023/11/28 11:37:10;;;;;;;66.17;30.47;;;;;;;;;;4323980;32;315762;-87
2023/11/28 11:39:38;;;;;;;12.93;7.00;;;;;;;;;;4347913;32;317935;-89
2023/11/28 11:42:10;;;;;;;32.63;16.37;;;;;;;;;;4350799;32;317742;-88
2023/11/28 11:44:42;;;;;;;28.50;14.77;;;;;;;;;;4369162;32;317612;-85
2023/11/28 11:47:19;;;;;;;15.30;7.63;;;;;;;;;;4374878;32;318824;-87
2023/11/28 11:49:48;;;;;;;18.17;9.10;;;;;;;;;;4376573;32;416169;-86
2023/11/28 11:52:17;;;;;;;6.47;4.80;;;;;;;;;;4386577;32;321137;-90
2023/11/28 11:54:48;;;;;;;12.10;6.57;;;;;;;;;;4376002;32;315922;-91
2023/11/28 11:57:15;;;;;;;8.97;5.23;;;;;;;;;;4384071;32;316874;-88
2023/11/28 11:59:45;;;;;;;8.13;5.27;;;;;;;;;;4375806;32;316186;-89
2023/11/28 12:02:12;;;;;;;7.90;5.27;;;;;;;;;;4378080;32;329430;-89
2023/11/28 12:04:44;;;;;;;13.50;7.33;;;;;;;;;;4358771;32;316197;-89
2023/11/28 12:07:12;;;;;;;16.60;7.47;;;;;;;;;;4369431;32;317640;-87
2023/11/28 12:09:40;;;;;;;26.70;13.97;;;;;;;;;;4359742;32;317638;-88
2023/11/28 12:12:08;;;;;;;9.73;6.03;;;;;;;;;;4368804;32;317376;-85
2023/11/28 12:14:36;;;;;;;53.70;26.30;;;;;;;;;;4359758;32;316538;-86
2023/11/28 12:17:03;;;;;;;26.03;11.77;;;;;;;;;;4369555;32;317881;-89
2023/11/28 12:19:30;;;;;;;14.83;7.00;;;;;;;;;;4365209;32;318758;-89
2023/11/28 12:22:02;;;;;;;7.70;4.13;;;;;;;;;;4384619;32;318355;-85
2023/11/28 12:24:29;;;;;;;27.77;9.77;;;;;;;;;;4373488;32;316397;-89
2023/11/28 12:26:57;;;;;;;8.53;4.60;;;;;;;;;;4384913;32;317443;-89
2023/11/28 12:29:24;;;;;;;25.20;10.67;;;;;;;;;;4373528;32;316940;-89
2023/11/28 12:31:51;;;;;;;11.57;6.07;;;;;;;;;;4369623;32;318545;-85
2023/11/28 12:34:22;;;;;;;10.17;4.23;;;;;;;;;;4369878;32;317912;-88
2023/11/28 12:36:48;;;;;;;19.73;7.87;;;;;;;;;;4355740;32;417395;-88
2023/11/28 12:39:22;;;;;;;206.90;84.10;;;;;;;;;;4372218;32;317620;-87
2023/11/28 12:41:49;;;;;;;48.90;21.47;;;;;;;;;;4357169;32;419834;-85
2023/11/28 12:44:19;;;;;;;28.90;12.33;;;;;;;;;;4369703;32;318249;-86
2023/11/28 12:46:48;;;;;;;114.37;47.20;;;;;;;;;;4335710;32;416687;-89
2023/11/28 12:49:17;;;;;;;127.23;45.33;;;;;;;;;;4368968;32;319178;-87
2023/11/28 12:51:44;;;;;;;25.77;10.83;;;;;;;;;;4342947;32;351650;-88
2023/11/28 12:54:13;;;;;;;79.40;28.03;;;;;;;;;;4367976;32;317276;-88
2023/11/28 12:56:46;;;;;;;23.40;9.43;;;;;;;;;;4338487;32;318306;-88
2023/11/28 12:59:14;;;;;;;41.50;17.17;;;;;;;;;;4368036;32;316585;-87
2023/11/28 13:01:43;;;;;;;6.70;3.93;;;;;;;;;;4357943;32;318629;-88
2023/11/28 13:04:10;;;;;;;12.53;7.27;;;;;;;;;;4368928;32;316285;-86
2023/11/28 13:06:38;;;;;;;11.70;7.63;;;;;;;;;;4360031;32;317776;-88
2023/11/28 13:09:06;;;;;;;7.63;5.00;;;;;;;;;;4368952;32;316828;-88
2023/11/28 13:11:33;;;;;;;14.07;8.90;;;;;;;;;;4345851;32;316238;-85
2023/11/28 13:14:02;;;;;;;13.80;6.20;;;;;;;;;;4368768;32;316903;-88
2023/11/28 13:16:29;;;;;;;36.00;20.47;;;;;;;;;;4351011;32;316854;-85
2023/11/28 13:18:56;;;;;;;6.57;4.07;;;;;;;;;;4369185;32;318175;-89
2023/11/28 13:21:24;;;;;;;21.73;12.13;;;;;;;;;;4359209;32;316870;-86
2023/11/28 13:23:52;;;;;;;8.17;4.97;;;;;;;;;;4368571;32;317864;-83
2023/11/28 13:26:18;;;;;;;19.33;11.10;;;;;;;;;;4368023;32;316750;-89
2023/11/28 13:28:45;;;;;;;10.10;5.97;;;;;;;;;;4358838;32;318973;-88
2023/11/28 13:31:16;;;;;;;4.10;2.40;;;;;;;;;;4368680;32;317527;-87
2023/11/28 13:33:45;;;;;;;8.23;5.13;;;;;;;;;;4358530;32;338039;-86
2023/11/28 13:36:13;;;;;;;8.87;5.03;;;;;;;;;;4367955;32;315747;-88
2023/11/28 13:38:42;;;;;;;5.27;2.80;;;;;;;;;;4358846;32;316511;-89
2023/11/28 13:41:09;;;;;;;5.23;3.23;;;;;;;;;;4367528;32;316142;-87
2023/11/28 13:43:38;;;;;;;9.77;4.10;;;;;;;;;;4359136;32;316511;-84
2023/11/28 13:46:07;;;;;;;5.20;3.30;;;;;;;;;;4369453;32;315947;-84
2023/11/28 13:48:36;;;;;;;4.07;2.83;;;;;;;;;;4357926;32;316614;-87
2023/11/28 13:51:03;;;;;;;24.40;13.70;;;;;;;;;;4367330;32;315886;-87
2023/11/28 13:53:30;;;;;;;37.93;16.90;;;;;;;;;;4358468;32;355765;-89
2023/11/28 13:55:57;;;;;;;6.17;4.73;;;;;;;;;;4369004;32;317404;-88
2023/11/28 13:58:25;;;;;;;17.87;9.00;;;;;;;;;;4356722;32;316605;-86
2023/11/28 14:00:53;;;;;;;5.97;3.87;;;;;;;;;;4368665;32;316857;-87
2023/11/28 14:03:21;;;;;;;8.90;4.07;;;;;;;;;;4368500;32;316373;-88
2023/11/28 14:05:50;;;;;;;15.17;6.73;;;;;;;;;;4355585;32;415723;-89
2023/11/28 14:08:17;;;;;;;9.00;5.47;;;;;;;;;;4367536;32;317868;-87
2023/11/28 14:10:44;;;;;;;9.03;5.17;;;;;;;;;;4356565;32;335698;-88
2023/11/28 14:13:11;;;;;;;8.57;3.93;;;;;;;;;;4367260;32;315508;-87
2023/11/28 14:15:39;;;;;;;12.53;3.90;;;;;;;;;;4356058;32;316155;-87
2023/11/28 14:18:06;;;;;;;11.83;6.23;;;;;;;;;;4358012;32;317532;-87
2023/11/28 14:20:34;;;;;;;53.37;25.63;;;;;;;;;;4354671;32;317166;-86
2023/11/28 14:23:06;;;;;;;341.33;139.40;;;;;;;;;;4364311;32;318269;-84